createdAt,value
2022-08-22T00:01:15.186Z,99272.97
2022-08-22T00:02:48.340Z,99372.53
2022-08-22T00:03:15.359Z,99268.34
2022-08-22T00:04:02.031Z,99275.88
2022-08-22T00:07:02.111Z,99270.37
2022-08-22T00:09:36.463Z,99269.37
2022-08-22T00:12:18.267Z,99273.44
2022-08-22T00:14:59.864Z,99266.50
2022-08-22T00:17:53.281Z,99263.94
2022-08-22T00:20:36.182Z,99260.69
2022-08-22T00:23:22.396Z,99263.44
2022-08-22T00:26:17.598Z,99263.44
2022-08-22T00:28:54.102Z,99264.41
2022-08-22T00:31:44.925Z,99273.94
2022-08-22T00:34:24.072Z,99278.78
2022-08-22T00:37:19.097Z,99279.09
2022-08-22T00:39:47.254Z,99277.50
2022-08-22T00:42:31.823Z,99274.69
2022-08-22T00:45:05.174Z,99278.31
2022-08-22T00:48:06.639Z,99280.88
2022-08-22T00:50:43.717Z,99277.50
2022-08-22T00:53:29.495Z,99282.00
2022-08-22T00:56:15.439Z,99285.03
2022-08-22T00:59:23.210Z,99286.50
2022-08-22T01:01:57.562Z,99282.13
2022-08-22T01:04:43.285Z,99277.59
2022-08-22T01:07:40.269Z,99283.09
2022-08-22T01:10:20.141Z,99282.28
2022-08-22T01:13:04.330Z,99276.78
2022-08-22T01:15:36.137Z,99278.88
2022-08-22T01:18:24.674Z,99280.50
2022-08-22T01:21:35.280Z,99279.84
2022-08-22T01:24:35.906Z,99275.97
2022-08-22T01:27:37.335Z,99272.59
2022-08-22T01:30:27.729Z,99272.13
2022-08-22T01:33:20.172Z,99276.31
2022-08-22T01:35:56.586Z,99275.50
2022-08-22T01:38:57.906Z,99271.28
2022-08-22T01:41:44.881Z,99266.91
2022-08-22T01:44:22.179Z,99272.41
2022-08-22T01:46:52.654Z,99275.81
2022-08-22T01:49:29.130Z,99277.75
2022-08-22T01:52:11.153Z,99276.94
2022-08-22T01:54:48.798Z,99285.56
2022-08-22T01:57:16.977Z,99279.88
2022-08-22T01:59:49.259Z,99286.00
2022-08-22T02:02:54.332Z,99280.34
2022-08-22T02:05:32.104Z,99280.03
2022-08-22T02:08:21.423Z,99279.56
2022-08-22T02:10:55.139Z,99274.38
2022-08-22T02:13:46.001Z,99273.62
2022-08-22T02:16:38.544Z,99260.63
2022-08-22T02:19:15.297Z,99260.63
2022-08-22T02:21:59.078Z,99271.69
2022-08-22T02:24:45.338Z,99261.00
2022-08-22T02:27:41.581Z,99269.75
2022-08-22T02:30:21.798Z,99266.34
2022-08-22T02:33:16.689Z,99266.34
2022-08-22T02:35:57.661Z,99265.22
2022-08-22T02:38:43.855Z,99266.19
2022-08-22T02:41:17.589Z,99263.44
2022-08-22T02:43:55.038Z,99261.03
2022-08-22T02:46:47.040Z,99262.47
2022-08-22T02:49:43.906Z,99262.97
2022-08-22T02:52:26.158Z,99259.72
2022-08-22T02:55:01.993Z,99261.66
2022-08-22T02:57:57.880Z,99265.88
2022-08-22T03:00:42.016Z,99256.16
2022-08-22T03:03:15.854Z,99248.19
2022-08-22T03:05:46.067Z,99253.03
2022-08-22T03:08:22.397Z,99250.44
2022-08-22T03:11:02.398Z,99247.84
2022-08-22T03:13:45.022Z,99254.16
2022-08-22T03:16:27.714Z,99264.50
2022-08-22T03:19:18.664Z,99260.94
2022-08-22T03:22:00.354Z,99259.00
2022-08-22T03:24:40.094Z,99265.97
2022-08-22T03:27:31.400Z,99270.31
2022-08-22T03:30:07.018Z,99260.94
2022-08-22T03:32:51.440Z,99269.03
2022-08-22T03:35:37.964Z,99269.03
2022-08-22T03:38:27.209Z,99277.13
2022-08-22T03:41:20.104Z,99282.50
2022-08-22T03:44:09.402Z,99286.84
2022-08-22T03:46:39.842Z,99278.16
2022-08-22T03:49:33.339Z,99288.16
2022-08-22T03:52:28.905Z,99286.22
2022-08-22T03:55:17.032Z,99285.91
2022-08-22T03:57:56.462Z,99284.47
2022-08-22T04:00:24.062Z,99285.44
2022-08-22T04:03:04.882Z,99290.31
2022-08-22T04:06:02.662Z,99284.97
2022-08-22T04:09:19.050Z,99289.03
2022-08-22T04:12:07.583Z,99284.81
2022-08-22T04:14:59.935Z,99300.34
2022-08-22T04:17:44.601Z,99290.47
2022-08-22T04:20:21.850Z,99295.34
2022-08-22T04:23:11.361Z,99285.63
2022-08-22T04:25:44.154Z,99288.53
2022-08-22T04:28:19.936Z,99300.34
2022-08-22T04:31:02.629Z,99299.22
2022-08-22T04:33:40.233Z,99302.13
2022-08-22T04:36:24.804Z,99307.47
2022-08-22T04:39:37.530Z,99299.87
2022-08-22T04:42:33.131Z,99303.44
2022-08-22T04:45:13.557Z,99310.72
2022-08-22T04:47:54.189Z,99310.88
2022-08-22T04:51:00.343Z,99316.75
2022-08-22T04:54:19.030Z,99309.28
2022-08-22T04:57:10.971Z,99311.56
2022-08-22T04:59:41.348Z,99315.47
2022-08-22T05:02:20.877Z,99314.47
2022-08-22T05:04:55.727Z,99314.63
2022-08-22T05:07:35.904Z,99309.28
2022-08-22T05:10:12.290Z,99311.41
2022-08-22T05:12:51.764Z,99311.41
2022-08-22T05:15:23.723Z,99318.19
2022-08-22T05:17:55.261Z,99324.03
2022-08-22T05:20:28.700Z,99321.91
2022-08-22T05:23:03.087Z,99324.97
2022-08-22T05:25:39.043Z,99327.06
2022-08-22T05:28:36.502Z,99324.16
2022-08-22T05:31:10.613Z,99335.34
2022-08-22T05:33:44.066Z,99337.25
2022-08-22T05:36:17.870Z,99334.12
2022-08-22T05:38:57.315Z,99343.56
2022-08-22T05:41:31.880Z,99339.16
2022-08-22T05:44:01.025Z,99338.00
2022-08-22T05:46:46.789Z,99346.25
2022-08-22T05:49:51.912Z,99352.38
2022-08-22T05:52:40.910Z,99343.41
2022-08-22T05:55:17.613Z,99347.22
2022-08-22T05:57:53.959Z,99351.34
2022-08-22T06:00:25.610Z,99355.19
2022-08-22T06:03:26.504Z,99364.06
2022-08-22T06:05:58.370Z,99363.56
2022-08-22T06:08:25.893Z,99370.97
2022-08-22T06:11:05.354Z,99369.50
2022-08-22T06:13:47.285Z,99363.28
2022-08-22T06:16:21.050Z,99366.53
2022-08-22T06:18:51.311Z,99370.19
2022-08-22T06:21:38.631Z,99370.19
2022-08-22T06:24:10.412Z,99376.41
2022-08-22T06:26:46.105Z,99367.94
2022-08-22T06:29:29.816Z,99376.56
2022-08-22T06:31:58.961Z,99375.19
2022-08-22T06:34:32.819Z,99376.31
2022-08-22T06:37:05.051Z,99381.84
2022-08-22T06:39:39.437Z,99388.09
2022-08-22T06:42:23.002Z,99379.81
2022-08-22T06:44:57.151Z,99385.13
2022-08-22T06:47:29.951Z,99385.69
2022-08-22T06:50:03.806Z,99395.88
2022-08-22T06:52:39.872Z,99390.03
2022-08-22T06:55:10.258Z,99385.75
2022-08-22T06:57:56.215Z,99388.63
2022-08-22T07:00:27.701Z,99380.09
2022-08-22T07:03:06.361Z,99382.88
2022-08-22T07:05:40.297Z,99382.50
2022-08-22T07:08:11.143Z,99383.87
2022-08-22T07:10:43.474Z,99378.69
2022-08-22T07:13:17.180Z,99387.88
2022-08-22T07:15:47.181Z,99386.31
2022-08-22T07:18:23.311Z,99385.03
2022-08-22T07:20:59.233Z,99394.16
2022-08-22T07:23:36.088Z,99390.34
2022-08-22T07:26:12.394Z,99393.09
2022-08-22T07:29:11.358Z,99396.78
2022-08-22T07:31:50.000Z,99395.03
2022-08-22T07:34:39.430Z,99394.16
2022-08-22T07:37:24.153Z,99392.34
2022-08-22T07:40:16.235Z,99393.03
2022-08-22T07:42:51.897Z,99393.41
2022-08-22T07:45:27.953Z,99396.47
2022-08-22T07:48:05.937Z,99396.75
2022-08-22T07:50:42.161Z,99402.06
2022-08-22T07:53:30.854Z,99405.84
2022-08-22T07:56:01.452Z,99407.37
2022-08-22T07:58:33.871Z,99401.78
2022-08-22T08:01:02.494Z,99408.91
2022-08-22T08:03:31.731Z,99403.75
2022-08-22T08:06:02.347Z,99402.12
2022-08-22T08:08:32.785Z,99407.06
2022-08-22T08:11:01.605Z,99410.28
2022-08-22T08:13:36.958Z,99411.56
2022-08-22T08:16:08.422Z,99413.75
2022-08-22T08:18:38.753Z,99408.00
2022-08-22T08:21:28.216Z,99414.25
2022-08-22T08:24:03.055Z,99419.56
2022-08-22T08:27:01.800Z,99412.13
2022-08-22T08:29:32.738Z,99418.91
2022-08-22T08:32:07.878Z,99417.69
2022-08-22T08:34:36.956Z,99420.19
2022-08-22T08:37:17.398Z,99428.22
2022-08-22T08:39:50.732Z,99413.44
2022-08-22T08:43:10.816Z,99411.91
2022-08-22T08:46:14.429Z,99418.94
2022-08-22T08:49:13.189Z,99416.19
2022-08-22T08:52:24.476Z,99401.19
2022-08-22T08:54:55.693Z,99416.88
2022-08-22T08:57:51.159Z,99408.34
2022-08-22T09:00:57.518Z,99420.16
2022-08-22T09:03:49.013Z,99419.44
2022-08-22T09:06:57.407Z,99417.03
2022-08-22T09:09:59.475Z,99411.03
2022-08-22T09:13:12.393Z,99414.63
2022-08-22T09:16:05.194Z,99409.53
2022-08-22T09:19:08.152Z,99413.91
2022-08-22T09:22:04.509Z,99413.50
2022-08-22T09:24:49.852Z,99410.22
2022-08-22T09:27:24.763Z,99414.47
2022-08-22T09:33:07.037Z,99410.97
2022-08-22T09:36:05.188Z,99418.56
2022-08-22T09:38:51.686Z,99406.69
2022-08-22T09:40:15.634Z,99417.62
2022-08-22T09:41:32.453Z,99414.16
2022-08-22T09:44:24.575Z,99411.31
2022-08-22T09:47:02.982Z,99409.44
2022-08-22T09:49:47.769Z,99415.84
2022-08-22T09:52:34.606Z,99410.38
2022-08-22T09:55:11.773Z,99413.41
2022-08-22T09:58:05.757Z,99413.59
2022-08-22T10:00:55.273Z,99416.88
2022-08-22T10:03:48.954Z,99415.25
2022-08-22T10:06:27.794Z,99414.63
2022-08-22T10:09:09.003Z,99419.75
2022-08-22T10:11:45.167Z,99422.19
2022-08-22T10:14:26.659Z,99422.63
2022-08-22T10:16:54.153Z,99426.16
2022-08-22T10:19:25.199Z,99421.06
2022-08-22T10:22:31.546Z,99422.34
2022-08-22T10:25:08.520Z,99428.25
2022-08-22T10:27:56.141Z,99429.00
2022-08-22T10:30:34.251Z,99426.69
2022-08-22T10:33:24.376Z,99429.09
2022-08-22T10:35:51.840Z,99422.47
2022-08-22T10:38:36.028Z,99427.97
2022-08-22T10:42:02.294Z,99423.47
2022-08-22T10:45:16.038Z,99420.19
2022-08-22T10:47:51.899Z,99430.31
2022-08-22T10:50:36.435Z,99430.59
2022-08-22T10:53:31.272Z,99423.94
2022-08-22T10:56:01.547Z,99428.72
2022-08-22T10:58:36.817Z,99418.78
2022-08-22T11:01:37.585Z,99419.84
2022-08-22T11:04:17.983Z,99424.03
2022-08-22T11:07:10.910Z,99424.09
2022-08-22T11:09:44.568Z,99419.75
2022-08-22T11:12:34.550Z,99411.31
2022-08-22T11:15:24.180Z,99415.16
2022-08-22T11:18:51.493Z,99409.81
2022-08-22T11:22:03.823Z,99416.63
2022-08-22T11:25:11.375Z,99421.03
2022-08-22T11:27:54.344Z,99416.81
2022-08-22T11:30:44.192Z,99419.44
2022-08-22T11:33:47.710Z,99413.31
2022-08-22T11:36:34.051Z,99417.69
2022-08-22T11:39:35.432Z,99412.69
2022-08-22T11:42:12.871Z,99412.22
2022-08-22T11:45:04.154Z,99412.00
2022-08-22T11:47:40.514Z,99411.78
2022-08-22T11:50:45.720Z,99407.53
2022-08-22T11:53:39.353Z,99403.28
2022-08-22T11:56:32.349Z,99403.22
2022-08-22T11:59:23.854Z,99398.47
2022-08-22T12:02:01.525Z,99395.69
2022-08-22T12:04:47.204Z,99395.53
2022-08-22T12:07:40.817Z,99395.53
2022-08-22T12:10:18.691Z,99388.91
2022-08-22T12:12:47.602Z,99383.94
2022-08-22T12:16:00.331Z,99392.63
2022-08-22T12:18:46.215Z,99385.34
2022-08-22T12:21:47.306Z,99380.81
2022-08-22T12:24:30.603Z,99389.97
2022-08-22T12:27:11.208Z,99392.75
2022-08-22T12:30:15.486Z,99389.09
2022-08-22T12:33:22.951Z,99387.34
2022-08-22T12:36:18.296Z,99386.44
2022-08-22T12:39:29.452Z,99386.09
2022-08-22T12:42:28.782Z,99371.44
2022-08-22T12:45:30.536Z,99371.91
2022-08-22T12:48:48.044Z,99375.69
2022-08-22T12:51:42.473Z,99378.41
2022-08-22T12:54:41.381Z,99379.03
2022-08-22T12:57:50.294Z,99378.03
2022-08-22T13:00:41.882Z,99381.91
2022-08-22T13:03:13.830Z,99384.16
2022-08-22T13:05:59.994Z,99377.56
2022-08-22T13:08:40.275Z,99379.41
2022-08-22T13:11:22.682Z,99383.87
2022-08-22T13:13:57.136Z,99389.09
2022-08-22T13:16:37.305Z,99392.41
2022-08-22T13:19:18.124Z,99391.06
2022-08-22T13:21:56.152Z,99385.31
2022-08-22T13:24:40.130Z,99391.97
2022-08-22T13:27:25.770Z,99396.50
2022-08-22T13:30:01.394Z,99402.84
2022-08-22T13:32:44.510Z,99391.47
2022-08-22T13:35:24.437Z,99397.09
2022-08-22T13:38:03.572Z,99401.00
2022-08-22T13:40:35.103Z,99400.81
2022-08-22T13:43:09.643Z,99404.97
2022-08-22T13:45:39.129Z,99401.44
2022-08-22T13:48:13.714Z,99404.22
2022-08-22T13:50:57.706Z,99411.53
2022-08-22T13:53:35.316Z,99416.97
2022-08-22T13:56:18.456Z,99416.56
2022-08-22T13:58:51.364Z,99416.44
2022-08-22T14:01:48.772Z,99417.75
2022-08-22T14:04:37.373Z,99414.66
2022-08-22T14:07:04.876Z,99417.38
2022-08-22T14:10:15.024Z,99410.50
2022-08-22T14:13:10.881Z,99411.66
2022-08-22T14:15:45.068Z,99400.88
2022-08-22T14:18:45.563Z,99402.16
2022-08-22T14:21:29.568Z,99399.75
2022-08-22T14:24:25.665Z,99404.94
2022-08-22T14:27:08.639Z,99396.63
2022-08-22T14:29:50.348Z,99391.03
2022-08-22T14:32:30.881Z,99394.25
2022-08-22T14:35:23.078Z,99384.06
2022-08-22T14:38:27.468Z,99385.59
2022-08-22T14:41:03.538Z,99387.47
2022-08-22T14:43:40.636Z,99382.25
2022-08-22T14:46:16.552Z,99385.78
2022-08-22T14:49:10.623Z,99390.69
2022-08-22T14:51:47.311Z,99392.66
2022-08-22T14:54:23.473Z,99396.28
2022-08-22T14:57:01.426Z,99396.53
2022-08-22T14:59:50.226Z,99397.50
2022-08-22T15:02:32.089Z,99394.94
2022-08-22T15:05:13.071Z,99387.78
2022-08-22T15:07:44.082Z,99388.59
2022-08-22T15:10:42.220Z,99396.94
2022-08-22T15:13:15.199Z,99392.13
2022-08-22T15:15:52.963Z,99390.22
2022-08-22T15:18:34.808Z,99392.88
2022-08-22T15:21:24.359Z,99395.53
2022-08-22T15:23:56.440Z,99393.22
2022-08-22T15:26:37.379Z,99396.91
2022-08-22T15:29:28.382Z,99400.03
2022-08-22T15:32:02.137Z,99403.94
2022-08-22T15:34:40.814Z,99401.41
2022-08-22T15:37:30.144Z,99399.13
2022-08-22T15:40:15.439Z,99398.06
2022-08-22T15:42:46.069Z,99406.72
2022-08-22T15:45:40.651Z,99405.47
2022-08-22T15:48:26.178Z,99405.69
2022-08-22T15:51:01.468Z,99409.94
2022-08-22T15:54:16.432Z,99405.81
2022-08-22T15:56:52.953Z,99413.25
2022-08-22T15:59:29.343Z,99431.88
2022-08-22T16:02:05.275Z,99436.13
2022-08-22T16:04:37.728Z,99434.06
2022-08-22T16:07:41.678Z,99443.97
2022-08-22T16:10:35.116Z,99433.16
2022-08-22T16:13:11.651Z,99434.09
2022-08-22T16:15:52.674Z,99433.16
2022-08-22T16:18:39.040Z,99433.97
2022-08-22T16:21:14.255Z,99432.69
2022-08-22T16:23:51.065Z,99430.25
2022-08-22T16:26:40.589Z,99430.50
2022-08-22T16:29:16.103Z,99432.31
2022-08-22T16:31:45.443Z,99437.13
2022-08-22T16:34:19.119Z,99432.62
2022-08-22T16:36:49.536Z,99436.41
2022-08-22T16:39:22.968Z,99437.91
2022-08-22T16:42:15.548Z,99436.81
2022-08-22T16:44:49.227Z,99424.22
2022-08-22T16:47:18.879Z,99435.84
2022-08-22T16:49:52.292Z,99432.34
2022-08-22T16:52:22.655Z,99432.06
2022-08-22T16:54:53.652Z,99434.34
2022-08-22T16:57:59.429Z,99429.69
2022-08-22T17:00:41.123Z,99436.56
2022-08-22T17:03:30.118Z,99429.94
2022-08-22T17:06:00.260Z,99420.38
2022-08-22T17:08:55.714Z,99424.28
2022-08-22T17:11:23.213Z,99424.28
2022-08-22T17:14:09.621Z,99426.44
2022-08-22T17:17:15.993Z,99430.00
2022-08-22T17:20:02.735Z,99442.88
2022-08-22T17:22:38.165Z,99437.22
2022-08-22T17:25:20.719Z,99446.50
2022-08-22T17:28:03.559Z,99459.78
2022-08-22T17:30:46.011Z,99461.41
2022-08-22T17:34:03.719Z,99467.13
2022-08-22T17:36:47.411Z,99476.34
2022-08-22T17:39:36.191Z,99478.97
2022-08-22T17:42:37.461Z,99467.50
2022-08-22T17:45:20.451Z,99467.22
2022-08-22T17:48:12.831Z,99480.69
2022-08-22T17:51:02.561Z,99481.88
2022-08-22T17:53:55.080Z,99477.34
2022-08-22T17:56:33.493Z,99480.75
2022-08-22T17:59:10.607Z,99483.84
2022-08-22T18:01:47.148Z,99485.94
2022-08-22T18:04:24.510Z,99480.28
2022-08-22T18:07:15.484Z,99483.37
2022-08-22T18:10:07.499Z,99480.63
2022-08-22T18:12:51.783Z,99472.22
2022-08-22T18:15:31.464Z,99480.81
2022-08-22T18:18:34.373Z,99478.88
2022-08-22T18:21:20.656Z,99478.41
2022-08-22T18:24:11.302Z,99481.81
2022-08-22T18:26:59.357Z,99476.13
2022-08-22T18:29:46.339Z,99479.88
2022-08-22T18:32:26.806Z,99488.16
2022-08-22T18:35:04.292Z,99491.06
2022-08-22T18:37:32.861Z,99484.63
2022-08-22T18:40:27.702Z,99483.31
2022-08-22T18:43:17.681Z,99495.94
2022-08-22T18:45:46.761Z,99495.47
2022-08-22T18:48:27.840Z,99496.28
2022-08-22T18:51:34.919Z,99491.91
2022-08-22T18:54:06.848Z,99491.25
2022-08-22T18:56:41.441Z,99495.00
2022-08-22T18:59:14.854Z,99491.91
2022-08-22T19:01:54.526Z,99489.16
2022-08-22T19:04:53.375Z,99495.16
2022-08-22T19:07:20.842Z,99509.41
2022-08-22T19:10:00.034Z,99514.44
2022-08-22T19:12:53.494Z,99515.72
2022-08-22T19:15:21.382Z,99511.03
2022-08-22T19:17:57.337Z,99514.25
2022-08-22T19:20:47.399Z,99520.72
2022-08-22T19:23:35.795Z,99529.81
2022-08-22T19:26:22.969Z,99524.62
2022-08-22T19:28:53.595Z,99534.50
2022-08-22T19:31:44.498Z,99536.59
2022-08-22T19:34:26.995Z,99535.13
2022-08-22T19:37:30.861Z,99540.00
2022-08-22T19:40:13.079Z,99535.81
2022-08-22T19:42:44.055Z,99534.19
2022-08-22T19:45:20.801Z,99536.44
2022-08-22T19:47:59.341Z,99529.63
2022-08-22T19:50:33.533Z,99525.25
2022-08-22T19:53:04.066Z,99530.44
2022-08-22T19:55:37.600Z,99528.00
2022-08-22T19:58:05.335Z,99537.09
2022-08-22T20:00:56.508Z,99534.97
2022-08-22T20:03:34.930Z,99534.34
2022-08-22T20:06:33.691Z,99537.44
2022-08-22T20:09:48.462Z,99537.09
2022-08-22T20:12:32.219Z,99541.47
2022-08-22T20:15:13.132Z,99545.69
2022-08-22T20:17:43.375Z,99547.66
2022-08-22T20:20:28.022Z,99543.41
2022-08-22T20:23:12.227Z,99541.47
2022-08-22T20:25:44.950Z,99545.22
2022-08-22T20:28:34.039Z,99542.28
2022-08-22T20:31:04.982Z,99532.75
2022-08-22T20:33:46.564Z,99529.50
2022-08-22T20:36:27.907Z,99531.28
2022-08-22T20:39:04.286Z,99525.91
2022-08-22T20:41:31.834Z,99529.47
2022-08-22T20:44:13.272Z,99522.66
2022-08-22T20:46:43.804Z,99519.09
2022-08-22T20:49:21.316Z,99524.59
2022-08-22T20:52:23.411Z,99515.38
2022-08-22T20:55:14.573Z,99523.28
2022-08-22T20:57:56.121Z,99531.22
2022-08-22T21:00:29.341Z,99524.91
2022-08-22T21:03:08.667Z,99525.72
2022-08-22T21:05:41.549Z,99513.25
2022-08-22T21:08:19.658Z,99527.56
2022-08-22T21:11:15.719Z,99527.25
2022-08-22T21:13:48.526Z,99516.00
2022-08-22T21:16:20.599Z,99518.75
2022-08-22T21:18:49.951Z,99508.41
2022-08-22T21:21:18.044Z,99515.53
2022-08-22T21:23:49.349Z,99514.91
2022-08-22T21:26:35.217Z,99516.00
2022-08-22T21:29:13.456Z,99512.78
2022-08-22T21:31:50.374Z,99508.25
2022-08-22T21:34:23.319Z,99514.88
2022-08-22T21:36:55.170Z,99509.69
2022-08-22T21:39:27.485Z,99517.47
2022-08-22T21:42:00.816Z,99514.22
2022-08-22T21:44:46.598Z,99507.25
2022-08-22T21:47:39.025Z,99504.19
2022-08-22T21:50:09.220Z,99514.38
2022-08-22T21:52:41.680Z,99522.50
2022-08-22T21:55:23.380Z,99520.37
2022-08-22T21:58:12.090Z,99516.81
2022-08-22T22:00:48.797Z,99516.50
2022-08-22T22:03:18.565Z,99518.75
2022-08-22T22:05:46.157Z,99517.94
2022-08-22T22:08:16.270Z,99515.03
2022-08-22T22:10:45.424Z,99529.63
2022-08-22T22:13:13.093Z,99532.03
2022-08-22T22:15:44.937Z,99535.94
2022-08-22T22:18:17.204Z,99539.50
2022-08-22T22:20:46.769Z,99549.38
2022-08-22T22:23:16.424Z,99550.50
2022-08-22T22:25:45.718Z,99561.19
2022-08-22T22:28:21.474Z,99551.78
2022-08-22T22:30:53.019Z,99552.59
2022-08-22T22:33:25.810Z,99557.78
2022-08-22T22:35:55.556Z,99566.53
2022-08-22T22:38:25.988Z,99562.00
2022-08-22T22:40:57.185Z,99563.28
2022-08-22T22:43:27.206Z,99572.84
2022-08-22T22:45:57.095Z,99565.25
2022-08-22T22:48:30.091Z,99561.84
2022-08-22T22:50:57.627Z,99566.53
2022-08-22T22:53:37.954Z,99561.03
2022-08-22T22:56:11.973Z,99564.75
2022-08-22T22:58:43.810Z,99561.69
2022-08-22T23:01:20.842Z,99564.09
2022-08-22T23:03:49.497Z,99569.94
2022-08-22T23:06:21.873Z,99574.31
2022-08-22T23:08:50.086Z,99575.59
2022-08-22T23:11:20.841Z,99577.22
2022-08-22T23:13:51.722Z,99575.59
2022-08-22T23:16:28.091Z,99570.75
2022-08-22T23:18:56.158Z,99572.84
2022-08-22T23:21:27.825Z,99572.03
2022-08-22T23:24:00.247Z,99578.66
2022-08-22T23:26:28.791Z,99575.44
2022-08-22T23:29:00.719Z,99573.78
2022-08-22T23:31:35.394Z,99571.88
2022-08-22T23:34:11.735Z,99571.03
2022-08-22T23:36:41.023Z,99570.09
2022-08-22T23:39:10.109Z,99567.97
2022-08-22T23:41:38.871Z,99564.41
2022-08-22T23:44:08.514Z,99570.22
2022-08-22T23:46:42.197Z,99561.97
2022-08-22T23:49:14.975Z,99563.41
2022-08-22T23:51:43.667Z,99566.47
2022-08-22T23:54:13.792Z,99562.12
2022-08-22T23:56:47.775Z,99569.25
2022-08-22T23:59:19.859Z,99561.78
